^^
Lockford-Weather Station Historical Data
 
Daily Summary for June 18, 2019 Units:  English    Metric   Both
Daily Weekly Monthly Yearly Custom
  Current: High: Low: Average:
Temperature: 81.3 °F 86.5 °F 48 °F 70.1 °F
Dew Point: 36.4 °F 41.7 °F 18.8 °F 34.5 °F
Humidity: 20% 74% 10% 32%
Wind Speed: 17.3mph 19.6mph 0mph 5.1mph
Wind Gust: 6mph 9.8mph - -
WindNW - - SW
Pressure: 30.09 in 30.19 in 30.09 in -
Precipitation: 0 in      
Historical Graphs
 
 
Tabular Data for June 18, 2019
Time Temperature Dew Point Pressure Wind Wind Speed Wind Gust Humidity Rainfall Rate (Hourly)
00:04 66.6 °F 37.3 °F 30.13 in NW 4.6 mph 2.2 mph 34% 0 in
00:09 66.7 °F 36.7 °F 30.14 in West 5.8 mph 3.8 mph 33% 0 in
00:14 66.9 °F 36.9 °F 30.14 in West 8.1 mph 3.8 mph 33% 0 in
00:19 66.7 °F 35.9 °F 30.14 in SW 8.1 mph 0.7 mph 32% 0 in
00:24 66.4 °F 36.4 °F 30.14 in West 2.3 mph 1.6 mph 33% 0 in
00:29 65.8 °F 36.7 °F 30.14 in NW 3.5 mph 0.7 mph 34% 0 in
00:34 65.3 °F 36.2 °F 30.14 in West 5.8 mph 4.5 mph 34% 0 in
00:39 64.9 °F 35.1 °F 30.14 in West 9.2 mph 4.5 mph 33% 0 in
00:44 65.5 °F 34 °F 30.14 in NW 8.1 mph 6 mph 31% 0 in
00:49 66.2 °F 33.8 °F 30.14 in West 8.1 mph 3.8 mph 30% 0 in
00:54 66.2 °F 33.8 °F 30.14 in NW 8.1 mph   30% 0 in
00:59 65.5 °F 34 °F 30.14 in Calm     31% 0 in
01:04 65.3 °F 33.9 °F 30.14 in Calm     31% 0 in
01:09 64.2 °F 33.7 °F 30.14 in North 2.3 mph   32% 0 in
01:14 63.7 °F 34 °F 30.14 in NE 3.5 mph 0.7 mph 33% 0 in
01:19 63.1 °F 35 °F 30.14 in NE 2.3 mph   35% 0 in
01:24 62.6 °F 35.3 °F 30.14 in Calm     36% 0 in
01:29 62.2 °F 34.2 °F 30.14 in Calm     35% 0 in
01:34 62.1 °F 34.8 °F 30.14 in NE 2.3 mph 1.6 mph 36% 0 in
01:39 61.2 °F 35.3 °F 30.14 in South 1.2 mph   38% 0 in
01:44 60.6 °F 35.5 °F 30.14 in Calm     39% 0 in
01:49 60.4 °F 35.3 °F 30.15 in Calm     39% 0 in
01:54 60.1 °F 35 °F 30.15 in Calm     39% 0 in
01:59 59.5 °F 34.5 °F 30.15 in Calm     39% 0 in
02:04 59.2 °F 34.9 °F 30.15 in Calm     40% 0 in
02:09 59.2 °F 34.9 °F 30.15 in Calm     40% 0 in
02:14 57.9 °F 37.2 °F 30.15 in Calm     46% 0 in
02:19 57.2 °F 36 °F 30.15 in Calm     45% 0 in
02:24 57 °F 35.9 °F 30.14 in Calm     45% 0 in
02:29 56.5 °F 36.5 °F 30.15 in Calm     47% 0 in
02:34 55.9 °F 36.5 °F 30.15 in East 2.3 mph   48% 0 in
02:39 55.4 °F 37.1 °F 30.15 in Calm     50% 0 in
02:44 54.9 °F 37.1 °F 30.15 in ESE 2.3 mph   51% 0 in
02:49 54.5 °F 38.2 °F 30.15 in East 2.3 mph 0.7 mph 54% 0 in
02:54 54.5 °F 38.2 °F 30.15 in NE 1.2 mph   54% 0 in
02:59 54.1 °F 37.4 °F 30.15 in Calm     53% 0 in
03:04 54 °F 37.2 °F 30.14 in Calm     53% 0 in
03:09 53.4 °F 37.2 °F 30.14 in Calm     54% 0 in
03:14 53.2 °F 37.5 °F 30.15 in SE 3.5 mph   55% 0 in
03:19 53.1 °F 36.8 °F 30.14 in Calm     54% 0 in
03:24 52.7 °F 37 °F 30.15 in Calm     55% 0 in
03:29 52.3 °F 37.1 °F 30.14 in Calm     56% 0 in
03:34 52 °F 36.8 °F 30.15 in Calm     56% 0 in
03:39 52 °F 38.1 °F 30.15 in Calm     59% 0 in
03:44 51.6 °F 37.7 °F 30.14 in Calm     59% 0 in
03:49 51.4 °F 38 °F 30.15 in Calm     60% 0 in
03:54 51.3 °F 38.3 °F 30.14 in Calm     61% 0 in
03:59 51.6 °F 39 °F 30.15 in NE 4.6 mph 1.6 mph 62% 0 in
04:04 51.6 °F 39 °F 30.15 in East 2.3 mph 0.7 mph 62% 0 in
04:09 51.3 °F 38.3 °F 30.15 in NE 2.3 mph   61% 0 in
04:14 50.9 °F 38.3 °F 30.15 in Calm     62% 0 in
04:19 50.9 °F 38.7 °F 30.16 in NW 3.5 mph 0.7 mph 63% 0 in
04:24 51.1 °F 38.5 °F 30.15 in NW 2.3 mph   62% 0 in
04:29 51.3 °F 38.3 °F 30.16 in Calm     61% 0 in
04:34 51.1 °F 38.5 °F 30.16 in Calm     62% 0 in
04:39 51.1 °F 38.1 °F 30.15 in Calm     61% 0 in
04:44 50.7 °F 38.2 °F 30.15 in East 2.3 mph 1.6 mph 62% 0 in
04:49 50 °F 37.9 °F 30.15 in Calm     63% 0 in
04:54 49.6 °F 38 °F 30.16 in Calm     64% 0 in
04:59 49.3 °F 38.4 °F 30.16 in Calm     66% 0 in
05:04 49.1 °F 38.6 °F 30.16 in Calm     67% 0 in
05:09 48.7 °F 39 °F 30.16 in Calm     69% 0 in
05:14 48.4 °F 38.7 °F 30.16 in Calm   1.6 mph 69% 0 in
05:19 48.2 °F 39.6 °F 30.16 in NE 1.2 mph 1.6 mph 72% 0 in
05:24 48.2 °F 40.3 °F 30.16 in NE 3.5 mph   74% 0 in
05:29 48 °F 39.8 °F 30.17 in Calm     73% 0 in
05:34 48 °F 39.8 °F 30.17 in NE 3.5 mph 1.6 mph 73% 0 in
05:39 48 °F 37.2 °F 30.17 in NE 3.5 mph 2.2 mph 66% 0 in
05:44 48.2 °F 36.6 °F 30.17 in NE 3.5 mph 2.2 mph 64% 0 in
05:49 48.4 °F 36 °F 30.17 in NE 3.5 mph 1.6 mph 62% 0 in
05:54 48.6 °F 35.7 °F 30.17 in NE 3.5 mph 1.6 mph 61% 0 in
05:59 48.7 °F 35.9 °F 30.17 in North 2.3 mph   61% 0 in
06:04 49.1 °F 36.6 °F 30.17 in Calm     62% 0 in
06:09 50.5 °F 37.6 °F 30.17 in Calm   1.6 mph 61% 0 in
06:14 51.8 °F 38.3 °F 30.18 in Calm     60% 0 in
06:19 53.2 °F 37.9 °F 30.18 in Calm     56% 0 in
06:24 54.5 °F 38.7 °F 30.18 in Calm     55% 0 in
06:29 55.9 °F 39.5 °F 30.18 in Calm     54% 0 in
06:34 57 °F 39.1 °F 30.18 in Calm     51% 0 in
06:39 58.6 °F 40 °F 30.18 in Calm     50% 0 in
06:44 60.3 °F 40.5 °F 30.18 in Calm     48% 0 in
06:49 61.3 °F 39.8 °F 30.18 in Calm     45% 0 in
06:54 62.1 °F 39.9 °F 30.18 in Calm     44% 0 in
06:59 62.2 °F 40 °F 30.18 in Calm     44% 0 in
07:04 61.7 °F 39.6 °F 30.18 in Calm     44% 0 in
07:09 61.9 °F 40.3 °F 30.18 in SSE 3.5 mph 1.6 mph 45% 0 in
07:14 61.2 °F 39.6 °F 30.18 in SSE 3.5 mph 1.6 mph 45% 0 in
07:19 61.3 °F 38.6 °F 30.18 in SE 1.2 mph 2.2 mph 43% 0 in
07:24 61.9 °F 39.7 °F 30.18 in Calm     44% 0 in
07:29 63.3 °F 39.2 °F 30.18 in Calm     41% 0 in
07:34 63.3 °F 38.6 °F 30.19 in SE 2.3 mph   40% 0 in
07:39 65.1 °F 39.5 °F 30.19 in Calm     39% 0 in
07:44 66.2 °F 39.1 °F 30.19 in SE 1.2 mph   37% 0 in
07:49 66.9 °F 40.5 °F 30.19 in SW 1.2 mph   38% 0 in
07:54 67.5 °F 41 °F 30.18 in Calm     38% 0 in
07:59 68.7 °F 41.4 °F 30.19 in Calm     37% 0 in
08:04 70 °F 40.3 °F 30.19 in Calm     34% 0 in
08:09 69.1 °F 39.5 °F 30.19 in Calm   0.7 mph 34% 0 in
08:14 69.1 °F 40.3 °F 30.19 in NE 1.2 mph   35% 0 in
08:19 68.5 °F 39.8 °F 30.18 in NE 3.5 mph 1.6 mph 35% 0 in
08:24 68.7 °F 39.9 °F 30.18 in South 3.5 mph   35% 0 in
08:29 69.6 °F 39.2 °F 30.18 in NE 3.5 mph   33% 0 in
08:34 70.5 °F 39.2 °F 30.19 in West 2.3 mph   32% 0 in
08:39 71.1 °F 40.5 °F 30.18 in Calm   0.7 mph 33% 0 in
08:44 71.2 °F 39 °F 30.18 in North 1.2 mph 1.6 mph 31% 0 in
08:49 70.5 °F 40 °F 30.18 in South 3.5 mph   33% 0 in
08:54 70.5 °F 40.8 °F 30.18 in NW 4.6 mph 2.2 mph 34% 0 in
08:59 69.6 °F 40 °F 30.18 in SW 3.5 mph 1.6 mph 34% 0 in
09:04 70.7 °F 41.7 °F 30.18 in SW 3.5 mph 2.2 mph 35% 0 in
09:09 70.7 °F 40.9 °F 30.17 in South 1.2 mph   34% 0 in
09:14 71.2 °F 40.6 °F 30.17 in South 4.6 mph 2.2 mph 33% 0 in
09:19 72 °F 40.5 °F 30.17 in SE 2.3 mph   32% 0 in
09:24 73.8 °F 41.2 °F 30.17 in West 3.5 mph   31% 0 in
09:29 72.9 °F 38.7 °F 30.17 in South 3.5 mph   29% 0 in
09:34 73 °F 38.9 °F 30.17 in West 6.9 mph 1.6 mph 29% 0 in
09:39 72.5 °F 38.4 °F 30.17 in West 1.2 mph 0.7 mph 29% 0 in
09:44 72.5 °F 37.5 °F 30.17 in NW 5.8 mph 2.2 mph 28% 0 in
09:49 72.7 °F 36.8 °F 30.17 in SW 5.8 mph 2.2 mph 27% 0 in
09:54 72.7 °F 33.8 °F 30.17 in NW 4.6 mph 4.5 mph 24% 0 in
09:59 72 °F 34.2 °F 30.17 in West 6.9 mph 1.6 mph 25% 0 in
10:04 72.9 °F 35 °F 30.17 in NE 5.8 mph 0.7 mph 25% 0 in
10:09 74.1 °F 33.9 °F 30.16 in SW 4.6 mph 0.7 mph 23% 0 in
10:14 74.5 °F 34.2 °F 30.17 in South 5.8 mph   23% 0 in
10:19 75.2 °F 33.7 °F 30.16 in Calm   1.6 mph 22% 0 in
10:24 75.7 °F 33 °F 30.17 in NE 2.3 mph 1.6 mph 21% 0 in
10:29 76.1 °F 33.3 °F 30.16 in NW 8.1 mph 3.8 mph 21% 0 in
10:34 75.4 °F 32.7 °F 30.16 in West 6.9 mph 1.6 mph 21% 0 in
10:39 75.7 °F 34.2 °F 30.16 in Calm   3.1 mph 22% 0 in
10:44 76.8 °F 35.1 °F 30.16 in NW 3.5 mph 1.6 mph 22% 0 in
10:49 77.7 °F 35.8 °F 30.16 in SW 3.5 mph 1.6 mph 22% 0 in
10:54 76.6 °F 33.8 °F 30.16 in WNW 8.1 mph 3.8 mph 21% 0 in
10:59 75.9 °F 35.4 °F 30.16 in SW 5.8 mph 3.8 mph 23% 0 in
11:04 76.5 °F 37 °F 30.16 in NNE 5.8 mph   24% 0 in
11:09 77.4 °F 34.4 °F 30.16 in NW 4.6 mph 3.1 mph 21% 0 in
11:14 76.6 °F 34.9 °F 30.15 in NW 6.9 mph 3.8 mph 22% 0 in
11:19 78.1 °F 35 °F 30.15 in Calm   0.7 mph 21% 0 in
11:24 78.3 °F 33.9 °F 30.15 in NE 5.8 mph 1.6 mph 20% 0 in
11:29 79 °F 35.7 °F 30.15 in WNW 6.9 mph 3.1 mph 21% 0 in
11:34 78.1 °F 32.4 °F 30.15 in NW 8.1 mph 2.2 mph 19% 0 in
11:39 78.1 °F 33.7 °F 30.15 in SW 3.5 mph 2.2 mph 20% 0 in
11:44 78.1 °F 32.4 °F 30.15 in NE 6.9 mph 1.6 mph 19% 0 in
11:49 78.8 °F 33 °F 30.15 in SW 5.8 mph   19% 0 in
11:54 79.2 °F 32 °F 30.15 in NW 3.5 mph 3.8 mph 18% 0 in
11:59 78.8 °F 30.3 °F 30.15 in NE 5.8 mph 0.7 mph 17% 0 in
12:04 79.3 °F 30.7 °F 30.14 in NW 5.8 mph 2.2 mph 17% 0 in
12:09 79.5 °F 32.3 °F 30.14 in East 3.5 mph 1.6 mph 18% 0 in
12:14 79.5 °F 29.4 °F 30.14 in NE 11.5 mph 1.6 mph 16% 0 in
12:19 80.1 °F 31.3 °F 30.15 in West 8.1 mph 2.2 mph 17% 0 in
12:24 80.2 °F 29.9 °F 30.14 in SW 4.6 mph 2.2 mph 16% 0 in
12:29 80.6 °F 30.2 °F 30.14 in South 6.9 mph 5.4 mph 16% 0 in
12:34 80.8 °F 25.3 °F 30.14 in SW 8.1 mph 6 mph 13% 0 in
12:39 80.4 °F 26.8 °F 30.14 in West 10.4 mph 2.2 mph 14% 0 in
12:44 80.2 °F 20.9 °F 30.13 in SW 10.4 mph 5.4 mph 11% 0 in
12:49 80.4 °F 21.1 °F 30.14 in NW 12.7 mph 7.6 mph 11% 0 in
12:54 80.4 °F 18.8 °F 30.13 in NW 8.1 mph 4.5 mph 10% 0 in
12:59 81.1 °F 19.4 °F 30.13 in NW 8.1 mph 3.8 mph 10% 0 in
13:04 81.7 °F 19.8 °F 30.13 in NW 8.1 mph 5.4 mph 10% 0 in
13:09 81.7 °F 19.8 °F 30.13 in SW 10.4 mph 8.3 mph 10% 0 in
13:14 82 °F 20.1 °F 30.13 in West 9.2 mph 3.8 mph 10% 0 in
13:19 81.7 °F 22 °F 30.13 in NW 10.4 mph 4.5 mph 11% 0 in
13:24 81.9 °F 22.2 °F 30.13 in NW 10.4 mph 3.8 mph 11% 0 in
13:29 83.1 °F 23.1 °F 30.13 in NW 3.5 mph 2.2 mph 11% 0 in
13:34 83.1 °F 23.1 °F 30.12 in NW 5.8 mph 2.2 mph 11% 0 in
13:39 83.5 °F 21.2 °F 30.12 in West 4.6 mph 0.7 mph 10% 0 in
13:44 84 °F 23.8 °F 30.12 in NW 4.6 mph 3.1 mph 11% 0 in
13:49 84.6 °F 26.3 °F 30.12 in WNW 5.8 mph 0.7 mph 12% 0 in
13:54 84.6 °F 26.3 °F 30.12 in NW 4.6 mph   12% 0 in
13:59 84.9 °F 22.2 °F 30.11 in SW 4.6 mph 3.8 mph 10% 0 in
14:04 84.7 °F 22.1 °F 30.11 in SW 8.1 mph 5.4 mph 10% 0 in
14:09 84.9 °F 24.5 °F 30.11 in SW 3.5 mph 2.2 mph 11% 0 in
14:14 85.1 °F 24.7 °F 30.11 in SE 9.2 mph 2.2 mph 11% 0 in
14:19 84.7 °F 26.5 °F 30.11 in SW 9.2 mph 4.5 mph 12% 0 in
14:24 84.9 °F 30.4 °F 30.11 in West 9.2 mph 5.4 mph 14% 0 in
14:29 84.2 °F 31.5 °F 30.11 in South 10.4 mph 3.1 mph 15% 0 in
14:34 85.3 °F 32.4 °F 30.11 in SW 4.6 mph 6.9 mph 15% 0 in
14:39 84 °F 34.5 °F 30.11 in SW 8.1 mph 1.6 mph 17% 0 in
14:44 84.4 °F 33.3 °F 30.11 in SW 8.1 mph   16% 0 in
14:49 85.6 °F 32.7 °F 30.11 in East 4.6 mph   15% 0 in
14:54 86.5 °F 33.4 °F 30.10 in NW 5.8 mph 0.7 mph 15% 0 in
14:59 86.2 °F 34.7 °F 30.10 in SW 6.9 mph 3.8 mph 16% 0 in
15:04 85.8 °F 34.4 °F 30.10 in NW 6.9 mph 7.6 mph 16% 0 in
15:09 85.5 °F 34.1 °F 30.10 in NW 5.8 mph 1.6 mph 16% 0 in
15:14 85.5 °F 34.1 °F 30.10 in NW 12.7 mph 6.9 mph 16% 0 in
15:19 85.6 °F 34.3 °F 30.10 in West 5.8 mph 7.6 mph 16% 0 in
15:24 85.3 °F 35.5 °F 30.10 in West 8.1 mph 4.5 mph 17% 0 in
15:29 84.7 °F 35.1 °F 30.10 in NW 10.4 mph 2.2 mph 17% 0 in
15:34 85.8 °F 34.4 °F 30.10 in NW 8.1 mph 4.5 mph 16% 0 in
15:39 85.1 °F 33.8 °F 30.10 in West 11.5 mph 5.4 mph 16% 0 in
15:44 84.9 °F 33.7 °F 30.10 in West 10.4 mph 3.8 mph 16% 0 in
15:49 84.9 °F 32.1 °F 30.10 in NW 12.7 mph 5.4 mph 15% 0 in
15:54 84.7 °F 32 °F 30.10 in East 8.1 mph 3.1 mph 15% 0 in
15:59 84.4 °F 33.3 °F 30.10 in NW 10.4 mph 6.9 mph 16% 0 in
16:04 84.4 °F 31.7 °F 30.10 in West 9.2 mph 2.2 mph 15% 0 in
16:09 84.4 °F 30 °F 30.10 in NW 12.7 mph 9.2 mph 14% 0 in
16:14 83.8 °F 29.5 °F 30.09 in NW 12.7 mph 5.4 mph 14% 0 in
16:19 84.7 °F 30.2 °F 30.09 in NW 9.2 mph 1.6 mph 14% 0 in
16:24 86 °F 29.4 °F 30.10 in NE 8.1 mph 4.5 mph 13% 0 in
16:29 85.8 °F 27.3 °F 30.10 in SW 12.7 mph 3.8 mph 12% 0 in
16:34 85.8 °F 25.2 °F 30.10 in NW 10.4 mph 4.5 mph 11% 0 in
16:39 85.1 °F 28.7 °F 30.10 in NW 10.4 mph 1.6 mph 13% 0 in
16:44 85.3 °F 26.9 °F 30.10 in West 10.4 mph 7.6 mph 12% 0 in
16:49 84.4 °F 28.1 °F 30.10 in West 12.7 mph 6 mph 13% 0 in
16:54 84.6 °F 28.3 °F 30.10 in NW 12.7 mph 9.2 mph 13% 0 in
16:59 84.2 °F 29.8 °F 30.09 in NW 17.3 mph 6.9 mph 14% 0 in
17:04 83.8 °F 31.2 °F 30.10 in NW 15 mph 8.3 mph 15% 0 in
17:09 83.8 °F 31.2 °F 30.10 in NW 19.6 mph 3.8 mph 15% 0 in
17:14 84 °F 33 °F 30.09 in NW 13.8 mph 8.3 mph 16% 0 in
17:19 83.7 °F 32.7 °F 30.09 in NW 13.8 mph 6.9 mph 16% 0 in
17:24 84 °F 33 °F 30.09 in NW 13.8 mph 2.2 mph 16% 0 in
17:29 84.4 °F 33.3 °F 30.09 in NW 12.7 mph 9.2 mph 16% 0 in
17:34 84.4 °F 36.2 °F 30.09 in NNE 10.4 mph 1.6 mph 18% 0 in
17:39 84.9 °F 35.2 °F 30.09 in NW 10.4 mph 5.4 mph 17% 0 in
17:44 84.4 °F 34.8 °F 30.09 in NW 11.5 mph 6 mph 17% 0 in
17:49 83.5 °F 35.5 °F 30.09 in West 18.4 mph 6.9 mph 18% 0 in
17:54 82.8 °F 33.5 °F 30.09 in NW 15 mph 8.3 mph 17% 0 in
17:59 82.6 °F 33.3 °F 30.09 in NW 17.3 mph 7.6 mph 17% 0 in
18:04 82 °F 34.3 °F 30.09 in NW 16.1 mph 9.8 mph 18% 0 in
18:09 82.2 °F 34.5 °F 30.09 in West 15 mph 8.3 mph 18% 0 in
18:14 81.9 °F 34.2 °F 30.09 in NW 15 mph 9.8 mph 18% 0 in
18:19 81.5 °F 35.2 °F 30.09 in NW 13.8 mph 7.6 mph 19% 0 in
18:24 81.3 °F 35.1 °F 30.09 in West 11.5 mph 9.8 mph 19% 0 in
18:29 81 °F 36.1 °F 30.09 in West 15 mph 3.8 mph 20% 0 in
18:34 81.3 °F 36.4 °F 30.09 in NW 17.3 mph 6 mph 20% 0 in
Klamath Falls Weather
Compliments of Weather Underground - 2 mb